createdAt,value
2018-10-05T00:00:46.524Z,99.90
2018-10-05T00:05:49.565Z,99.90
2018-10-05T00:10:52.567Z,99.90
2018-10-05T00:15:55.575Z,99.90
2018-10-05T00:20:58.655Z,99.90
2018-10-05T00:26:01.686Z,99.90
2018-10-05T00:31:04.724Z,99.90
2018-10-05T00:36:07.768Z,99.90
2018-10-05T00:41:10.809Z,99.90
2018-10-05T00:46:13.862Z,99.90
2018-10-05T00:51:16.907Z,99.90
2018-10-05T00:56:20.016Z,99.90
2018-10-05T01:01:23.020Z,99.90
2018-10-05T01:06:26.080Z,99.90
2018-10-05T01:11:29.234Z,99.90
2018-10-05T01:16:32.258Z,99.90
2018-10-05T01:21:35.270Z,99.90
2018-10-05T01:26:38.332Z,99.90
2018-10-05T01:31:41.359Z,99.90
2018-10-05T01:36:44.406Z,99.90
2018-10-05T01:41:47.464Z,99.90
2018-10-05T01:46:50.487Z,99.90
2018-10-05T01:51:53.581Z,99.90
2018-10-05T01:56:56.616Z,99.90
2018-10-05T02:01:59.687Z,99.90
2018-10-05T02:07:02.697Z,99.90
2018-10-05T02:12:05.966Z,99.90
2018-10-05T02:17:09.039Z,99.90
2018-10-05T02:22:12.122Z,99.90
2018-10-05T02:27:20.971Z,99.90
2018-10-05T02:32:24.020Z,99.90
2018-10-05T02:37:27.070Z,99.90
2018-10-05T02:42:30.094Z,99.90
2018-10-05T02:47:33.105Z,99.90
2018-10-05T02:52:36.187Z,99.90
2018-10-05T02:57:39.204Z,99.90
2018-10-05T03:02:42.275Z,99.90
2018-10-05T03:07:45.291Z,99.90
2018-10-05T03:12:48.388Z,99.90
2018-10-05T03:17:51.518Z,99.90
2018-10-05T03:22:54.578Z,99.90
2018-10-05T03:27:57.631Z,99.90
2018-10-05T03:33:00.652Z,99.90
2018-10-05T03:38:03.715Z,99.90
2018-10-05T03:43:06.930Z,99.90
2018-10-05T03:48:09.956Z,99.90
2018-10-05T03:53:12.984Z,99.90
2018-10-05T03:58:16.250Z,99.90
2018-10-05T04:03:19.248Z,99.90
2018-10-05T04:08:22.328Z,99.90
2018-10-05T04:13:25.420Z,99.90
2018-10-05T04:18:28.476Z,99.90
2018-10-05T04:23:31.515Z,99.90
2018-10-05T04:28:34.543Z,99.90
2018-10-05T04:33:37.611Z,99.90
2018-10-05T04:38:40.703Z,99.90
2018-10-05T04:43:43.741Z,99.90
2018-10-05T04:48:46.772Z,99.90
2018-10-05T04:53:49.882Z,99.90
2018-10-05T04:58:53.060Z,99.90
2018-10-05T05:03:56.159Z,99.90
2018-10-05T05:08:59.220Z,99.90
2018-10-05T05:14:02.264Z,99.90
2018-10-05T05:19:06.013Z,99.90
2018-10-05T05:24:09.069Z,99.90
2018-10-05T05:29:12.127Z,99.90
2018-10-05T05:34:15.173Z,99.90
2018-10-05T05:39:18.256Z,99.90
2018-10-05T05:44:21.283Z,99.90
2018-10-05T05:49:24.428Z,99.90
2018-10-05T05:54:27.567Z,99.90
2018-10-05T05:59:30.629Z,99.90
2018-10-05T06:04:33.703Z,99.90
2018-10-05T06:09:36.763Z,99.90
2018-10-05T06:14:39.818Z,99.90
2018-10-05T06:19:42.856Z,99.90
2018-10-05T06:24:45.920Z,99.90
2018-10-05T06:29:49.313Z,99.90
2018-10-05T06:34:52.444Z,99.90
2018-10-05T06:39:55.614Z,99.90
2018-10-05T06:44:58.860Z,99.90
2018-10-05T06:50:01.908Z,99.90
2018-10-05T06:55:05.076Z,99.90
2018-10-05T07:00:08.122Z,99.90
2018-10-05T07:05:11.153Z,99.90
2018-10-05T07:10:14.334Z,99.90
2018-10-05T07:15:17.366Z,99.90
2018-10-05T07:20:20.438Z,99.90
2018-10-05T07:25:23.529Z,99.90
2018-10-05T07:30:26.648Z,97.80
2018-10-05T07:35:29.730Z,95.60
2018-10-05T07:40:32.767Z,93.90
2018-10-05T07:45:35.801Z,90.60
2018-10-05T07:50:38.884Z,90.30
2018-10-05T07:55:41.968Z,90.90
2018-10-05T08:00:45.172Z,90.60
2018-10-05T08:05:48.783Z,91.00
2018-10-05T08:10:51.872Z,91.30
2018-10-05T08:15:54.927Z,90.70
2018-10-05T08:20:58.022Z,90.10
2018-10-05T08:26:01.164Z,89.80
2018-10-05T08:31:04.225Z,90.30
2018-10-05T08:36:07.562Z,87.40
2018-10-05T08:41:10.580Z,85.30
2018-10-05T08:46:13.599Z,87.10
2018-10-05T08:51:16.677Z,92.00
2018-10-05T08:56:19.708Z,95.00
2018-10-05T09:01:22.913Z,97.30
2018-10-05T09:06:25.980Z,99.90
2018-10-05T09:11:29.311Z,99.90
2018-10-05T09:16:32.392Z,99.90
2018-10-05T09:21:35.447Z,99.90
2018-10-05T09:26:38.496Z,99.90
2018-10-05T09:31:41.575Z,99.90
2018-10-05T09:36:44.651Z,99.90
2018-10-05T09:41:47.720Z,99.90
2018-10-05T09:46:50.747Z,99.90
2018-10-05T09:51:53.809Z,99.90
2018-10-05T09:56:56.827Z,99.90
2018-10-05T10:02:05.341Z,99.90
2018-10-05T10:07:08.401Z,98.80
2018-10-05T10:12:11.472Z,98.30
2018-10-05T10:17:14.533Z,98.80
2018-10-05T10:22:17.596Z,98.60
2018-10-05T10:27:20.694Z,97.50
2018-10-05T10:32:23.728Z,97.70
2018-10-05T10:37:26.783Z,98.40
2018-10-05T10:42:29.880Z,98.20
2018-10-05T10:47:32.949Z,97.80
2018-10-05T10:52:36.024Z,98.00
2018-10-05T10:57:39.082Z,97.70
2018-10-05T11:02:42.174Z,97.80
2018-10-05T11:07:45.283Z,97.70
2018-10-05T11:12:48.439Z,96.90
2018-10-05T11:17:51.468Z,97.30
2018-10-05T11:22:54.544Z,97.10
2018-10-05T11:27:57.666Z,97.50
2018-10-05T11:33:00.724Z,97.40
2018-10-05T11:38:03.868Z,96.30
2018-10-05T11:43:06.949Z,96.20
2018-10-05T11:48:10.040Z,95.50
2018-10-05T11:53:13.152Z,95.30
2018-10-05T11:58:16.247Z,94.30
2018-10-05T12:03:19.296Z,94.00
2018-10-05T12:08:22.402Z,93.90
2018-10-05T12:13:25.566Z,93.20
2018-10-05T12:18:28.603Z,93.40
2018-10-05T12:23:31.688Z,93.20
2018-10-05T12:28:34.757Z,93.10
2018-10-05T12:33:37.794Z,92.50
2018-10-05T12:38:40.864Z,92.20
2018-10-05T12:43:43.919Z,92.40
2018-10-05T12:48:46.981Z,92.70
2018-10-05T12:53:50.020Z,92.10
2018-10-05T12:58:53.119Z,91.90
2018-10-05T13:03:56.145Z,91.70
2018-10-05T13:08:59.207Z,92.50
2018-10-05T13:14:02.259Z,91.40
2018-10-05T13:19:05.321Z,91.10
2018-10-05T13:24:08.351Z,91.20
2018-10-05T13:29:11.447Z,91.40
2018-10-05T13:34:14.472Z,92.00
2018-10-05T13:39:17.568Z,91.10
2018-10-05T13:44:20.684Z,91.20
2018-10-05T13:49:23.746Z,90.80
2018-10-05T13:54:27.500Z,90.40
2018-10-05T13:59:30.563Z,90.20
2018-10-05T14:04:33.727Z,89.50
2018-10-05T14:09:36.802Z,90.20
2018-10-05T14:14:39.843Z,91.00
2018-10-05T14:19:42.986Z,91.20
2018-10-05T14:24:46.082Z,92.00
2018-10-05T14:29:49.164Z,91.90
2018-10-05T14:34:52.221Z,92.20
2018-10-05T14:39:55.312Z,91.70
2018-10-05T14:44:58.437Z,91.90
2018-10-05T14:50:01.608Z,92.20
2018-10-05T14:55:04.647Z,92.70
2018-10-05T15:00:07.703Z,93.60
2018-10-05T15:05:10.795Z,93.20
2018-10-05T15:10:13.855Z,93.50
2018-10-05T15:15:16.898Z,93.40
2018-10-05T15:20:19.928Z,93.70
2018-10-05T15:25:23.020Z,94.00
2018-10-05T15:30:26.132Z,94.60
2018-10-05T15:35:29.477Z,95.10
2018-10-05T15:40:32.558Z,95.50
2018-10-05T15:45:35.591Z,95.80
2018-10-05T15:50:38.619Z,96.00
2018-10-05T15:55:41.672Z,96.30
2018-10-05T16:00:44.743Z,97.00
2018-10-05T16:05:47.866Z,97.60
2018-10-05T16:10:50.877Z,98.50
2018-10-05T16:15:53.948Z,99.60
2018-10-05T16:20:57.012Z,99.90
2018-10-05T16:26:00.086Z,99.90
2018-10-05T16:31:03.241Z,99.90
2018-10-05T16:36:06.686Z,99.90
2018-10-05T16:41:09.721Z,99.90
2018-10-05T16:46:12.774Z,99.90
2018-10-05T16:51:15.796Z,99.90
2018-10-05T16:56:18.879Z,99.90
2018-10-05T17:01:21.942Z,99.90
2018-10-05T17:06:25.049Z,99.90
2018-10-05T17:11:28.117Z,99.90
2018-10-05T17:16:31.256Z,99.90
2018-10-05T17:21:34.741Z,99.90
2018-10-05T17:26:37.843Z,99.90
2018-10-05T17:31:40.904Z,99.90
2018-10-05T17:36:43.961Z,99.90
2018-10-05T17:41:47.092Z,99.90
2018-10-05T17:46:50.169Z,99.90
2018-10-05T17:51:53.480Z,99.90
2018-10-05T17:56:56.954Z,99.90
2018-10-05T18:02:00.126Z,99.90
2018-10-05T18:07:03.253Z,99.90
2018-10-05T18:12:06.481Z,99.90
2018-10-05T18:17:09.560Z,99.90
2018-10-05T18:22:12.697Z,99.90
2018-10-05T18:27:15.827Z,99.90
2018-10-05T18:32:18.864Z,99.90
2018-10-05T18:37:22.363Z,99.90
2018-10-05T18:42:25.464Z,99.90
2018-10-05T18:47:28.611Z,99.90
2018-10-05T18:52:31.667Z,99.90
2018-10-05T18:57:34.736Z,99.90
2018-10-05T19:02:37.900Z,99.90
2018-10-05T19:07:41.020Z,99.90
2018-10-05T19:12:44.167Z,99.90
2018-10-05T19:17:47.252Z,99.90
2018-10-05T19:22:50.487Z,99.90
2018-10-05T19:27:53.593Z,99.90
2018-10-05T19:32:58.570Z,99.90
2018-10-05T19:38:01.660Z,99.90
2018-10-05T19:43:04.713Z,99.90
2018-10-05T19:48:07.835Z,99.90
2018-10-05T19:53:11.001Z,99.90
2018-10-05T19:58:14.004Z,99.90
2018-10-05T20:03:17.064Z,99.90
2018-10-05T20:08:20.272Z,99.90
2018-10-05T20:13:23.330Z,99.90
2018-10-05T20:18:26.495Z,99.90
2018-10-05T20:23:29.523Z,99.90
2018-10-05T20:28:32.580Z,99.90
2018-10-05T20:33:35.690Z,99.90
2018-10-05T20:38:38.706Z,99.90
2018-10-05T20:43:41.725Z,99.90
2018-10-05T20:48:45.010Z,99.90
2018-10-05T20:53:48.103Z,99.90
2018-10-05T20:58:51.199Z,99.90
2018-10-05T21:03:54.297Z,99.90
2018-10-05T21:08:57.381Z,99.90
2018-10-05T21:14:00.419Z,99.90
2018-10-05T21:19:03.471Z,99.90
2018-10-05T21:24:06.628Z,99.90
2018-10-05T21:29:09.722Z,99.90
2018-10-05T21:34:12.745Z,99.90
2018-10-05T21:39:15.785Z,99.90
2018-10-05T21:44:18.836Z,99.90
2018-10-05T21:49:21.885Z,99.90
2018-10-05T21:54:24.927Z,99.90
2018-10-05T21:59:28.005Z,99.90
2018-10-05T22:04:31.082Z,99.90
2018-10-05T22:09:34.148Z,99.90
2018-10-05T22:14:37.273Z,99.90
2018-10-05T22:19:40.436Z,99.90
2018-10-05T22:24:43.452Z,99.90
2018-10-05T22:29:46.589Z,99.90
2018-10-05T22:34:49.659Z,99.90
2018-10-05T22:39:52.755Z,99.90
2018-10-05T22:44:55.819Z,99.90
2018-10-05T22:49:58.881Z,99.90
2018-10-05T22:55:02.192Z,99.90
2018-10-05T23:00:05.806Z,99.90
2018-10-05T23:05:08.898Z,99.90
2018-10-05T23:10:12.094Z,99.90
2018-10-05T23:15:15.227Z,99.90
2018-10-05T23:20:18.358Z,99.90
2018-10-05T23:25:21.402Z,99.90
2018-10-05T23:30:24.460Z,99.90
2018-10-05T23:35:27.610Z,99.90
2018-10-05T23:40:30.728Z,99.90
2018-10-05T23:45:33.820Z,99.90
2018-10-05T23:50:36.953Z,99.90
2018-10-05T23:55:39.993Z,99.90
